Time;durP1;ratioP1;P1;durP2;ratioP2;P2;SDS_P1;SDS_P2;PMS_P1;PMS_P2;Temp;Humidity;BMP_temperature;BMP_pressure;BME280_temperature;BME280_humidity;BME280_pressure;Samples;Min_cycle;Max_cycle;Signal;HPM_P1;HPM_P2
2021/04/24 00:00:02;;;;;;;22.40;4.32;;;5.50;99.90;;;;;;4921572;29;20403;-60
2021/04/24 00:02:28;;;;;;;25.98;4.60;;;5.40;99.90;;;;;;4921220;29;20035;-59
2021/04/24 00:04:53;;;;;;;20.42;3.58;;;5.40;99.90;;;;;;4919571;29;20080;-60
2021/04/24 00:07:20;;;;;;;27.85;4.63;;;5.40;99.90;;;;;;4921218;29;20039;-62
2021/04/24 00:09:48;;;;;;;21.42;4.93;;;5.30;99.90;;;;;;4921379;29;20063;-59
2021/04/24 00:12:15;;;;;;;23.27;4.10;;;5.30;99.90;;;;;;4921043;29;20151;-59
2021/04/24 00:14:41;;;;;;;16.65;4.35;;;5.30;99.90;;;;;;4921310;29;20024;-59
2021/04/24 00:17:07;;;;;;;25.98;5.28;;;5.20;99.90;;;;;;4919862;29;20036;-59
2021/04/24 00:19:33;;;;;;;29.88;5.97;;;5.20;99.90;;;;;;4921145;29;20146;-59
2021/04/24 00:21:58;;;;;;;20.80;4.47;;;5.10;99.90;;;;;;4920780;29;20034;-59
2021/04/24 00:24:24;;;;;;;19.65;4.13;;;5.10;99.90;;;;;;4921183;29;20031;-59
2021/04/24 00:26:50;;;;;;;15.90;4.22;;;5.00;99.90;;;;;;4921196;29;20072;-59
2021/04/24 00:29:16;;;;;;;16.25;4.15;;;5.00;99.90;;;;;;4919134;29;20035;-59
2021/04/24 00:31:42;;;;;;;21.63;5.63;;;4.90;99.90;;;;;;4920571;29;20047;-59
2021/04/24 00:34:08;;;;;;;19.10;3.88;;;5.00;99.90;;;;;;4920586;29;20079;-59
2021/04/24 00:36:34;;;;;;;28.98;4.93;;;5.00;99.90;;;;;;4920945;29;20032;-59
2021/04/24 00:38:59;;;;;;;20.15;4.60;;;4.90;99.90;;;;;;4902992;29;20035;-59
2021/04/24 00:41:25;;;;;;;17.65;4.07;;;4.90;99.90;;;;;;4920941;29;20031;-58
2021/04/24 00:43:51;;;;;;;29.23;5.03;;;4.90;99.90;;;;;;4920528;29;20032;-59
2021/04/24 00:46:18;;;;;;;20.50;3.55;;;4.90;99.90;;;;;;4919750;29;20032;-59
2021/04/24 00:48:44;;;;;;;16.35;3.78;;;4.80;99.90;;;;;;4918931;29;20059;-59
2021/04/24 00:51:10;;;;;;;17.08;3.95;;;4.80;99.90;;;;;;4921046;29;20044;-59
2021/04/24 00:53:37;;;;;;;23.98;4.18;;;4.70;99.90;;;;;;4903441;29;20509;-58
2021/04/24 00:56:06;;;;;;;16.92;4.30;;;4.70;99.90;;;;;;4920218;29;20031;-58
2021/04/24 00:58:34;;;;;;;13.57;3.97;;;4.70;99.90;;;;;;4920108;29;20148;-59
2021/04/24 01:01:01;;;;;;;14.45;3.33;;;4.70;99.90;;;;;;4920011;29;20118;-59
2021/04/24 01:03:27;;;;;;;16.77;3.15;;;4.60;99.90;;;;;;4921512;29;20043;-59
2021/04/24 01:05:53;;;;;;;14.25;3.38;;;4.60;99.90;;;;;;4923384;29;20032;-59
2021/04/24 01:08:19;;;;;;;14.18;3.00;;;4.60;99.90;;;;;;4901484;29;20074;-59
2021/04/24 01:10:45;;;;;;;12.98;3.80;;;4.60;99.90;;;;;;4924157;29;20040;-59
2021/04/24 01:13:13;;;;;;;16.40;3.22;;;4.50;99.90;;;;;;4924484;29;20104;-59
2021/04/24 01:15:40;;;;;;;17.33;2.97;;;4.50;99.90;;;;;;4924418;29;20118;-59
2021/04/24 01:18:07;;;;;;;16.70;3.92;;;4.40;99.90;;;;;;4922924;29;20146;-59
2021/04/24 01:20:34;;;;;;;18.52;3.63;;;4.40;99.90;;;;;;4923815;29;20027;-59
2021/04/24 01:23:01;;;;;;;24.27;3.22;;;4.30;99.90;;;;;;4923344;29;20630;-59
2021/04/24 01:25:28;;;;;;;11.73;3.00;;;4.30;99.90;;;;;;4923850;29;20383;-59
2021/04/24 01:28:00;;;;;;;18.48;3.80;;;4.30;99.90;;;;;;4923302;29;20451;-59
2021/04/24 01:30:32;;;;;;;21.40;3.40;;;4.30;99.90;;;;;;4923187;29;20042;-59
2021/04/24 01:32:58;;;;;;;12.43;2.88;;;4.30;99.90;;;;;;4923679;29;20054;-58
2021/04/24 01:35:32;;;;;;;16.00;3.60;;;4.20;99.90;;;;;;4922725;29;20066;-59
2021/04/24 01:37:59;;;;;;;31.50;3.63;;;4.20;99.90;;;;;;4923334;29;20864;-59
2021/04/24 01:40:26;;;;;;;15.27;3.55;;;4.10;99.90;;;;;;4922512;29;20035;-59
2021/04/24 01:42:52;;;;;;;14.48;3.20;;;4.10;99.90;;;;;;4924188;29;20138;-59
2021/04/24 01:45:21;;;;;;;15.95;2.88;;;4.10;99.90;;;;;;4924228;29;20705;-59
2021/04/24 01:47:47;;;;;;;16.00;3.13;;;4.10;99.90;;;;;;4923570;29;20082;-59
2021/04/24 01:50:27;;;;;;;14.32;2.45;;;4.10;99.90;;;;;;4922671;29;20055;-59
2021/04/24 01:52:54;;;;;;;19.92;4.38;;;4.00;99.90;;;;;;4921647;29;20078;-59
2021/04/24 01:55:27;;;;;;;12.43;2.60;;;4.00;99.90;;;;;;4923675;29;20510;-58
2021/04/24 01:57:54;;;;;;;18.08;3.65;;;4.00;99.90;;;;;;4922486;29;20035;-60
2021/04/24 02:00:33;;;;;;;14.18;4.03;;;3.90;99.90;;;;;;4922869;29;20032;-59
2021/04/24 02:03:03;;;;;;;7.38;2.13;;;3.90;99.90;;;;;;4923611;29;20043;-59
2021/04/24 02:05:28;;;;;;;11.60;2.58;;;3.90;99.90;;;;;;4921510;29;20031;-59
2021/04/24 02:08:03;;;;;;;15.07;3.75;;;3.80;99.90;;;;;;4923640;29;20148;-59
2021/04/24 02:10:30;;;;;;;7.75;2.08;;;3.80;99.90;;;;;;4922954;29;20483;-59
2021/04/24 02:13:06;;;;;;;5.25;1.88;;;3.80;99.90;;;;;;4921315;29;20555;-59
2021/04/24 02:15:32;;;;;;;11.05;2.28;;;3.70;99.90;;;;;;4921378;29;20051;-59
2021/04/24 02:17:58;;;;;;;4.88;1.80;;;3.70;99.90;;;;;;4922993;29;20051;-59
2021/04/24 02:20:24;;;;;;;12.32;3.20;;;3.70;99.90;;;;;;4922848;29;20435;-58
2021/04/24 02:22:50;;;;;;;10.27;2.33;;;3.70;99.90;;;;;;4922813;29;20403;-59
2021/04/24 02:25:17;;;;;;;8.88;1.85;;;3.60;99.90;;;;;;4922940;29;20044;-58
2021/04/24 02:27:44;;;;;;;11.15;1.90;;;3.60;99.90;;;;;;4922615;29;20035;-58
2021/04/24 02:30:13;;;;;;;8.25;2.13;;;3.60;99.90;;;;;;4923421;29;20115;-58
2021/04/24 02:32:40;;;;;;;8.98;1.77;;;3.60;99.90;;;;;;4921095;29;20039;-59
2021/04/24 02:35:08;;;;;;;9.48;1.92;;;3.50;99.90;;;;;;4898570;29;20040;-59
2021/04/24 02:37:36;;;;;;;10.63;1.75;;;3.50;99.90;;;;;;4920716;29;20031;-58
2021/04/24 02:40:05;;;;;;;12.27;2.67;;;3.50;99.90;;;;;;4922691;29;20044;-58
2021/04/24 02:42:31;;;;;;;4.60;1.70;;;3.40;99.90;;;;;;4923127;29;20036;-58
2021/04/24 02:45:05;;;;;;;9.18;1.88;;;3.50;99.90;;;;;;4921867;29;20513;-58
2021/04/24 02:47:31;;;;;;;3.65;1.60;;;3.50;99.90;;;;;;4922418;29;20138;-59
2021/04/24 02:49:57;;;;;;;6.90;1.98;;;3.40;99.90;;;;;;4921803;29;20066;-59
2021/04/24 02:52:23;;;;;;;8.88;2.03;;;3.40;99.90;;;;;;4921979;29;20048;-59
2021/04/24 02:54:49;;;;;;;6.65;1.63;;;3.30;99.90;;;;;;4921976;29;20035;-58
2021/04/24 02:57:15;;;;;;;8.77;2.83;;;3.30;99.90;;;;;;4922587;29;20028;-58
2021/04/24 02:59:40;;;;;;;4.70;1.42;;;3.30;99.90;;;;;;4922300;29;20043;-59
2021/04/24 03:02:06;;;;;;;6.03;0.95;;;3.30;99.90;;;;;;4920313;29;20039;-59
2021/04/24 03:04:32;;;;;;;5.50;1.42;;;3.30;99.90;;;;;;4922816;29;20553;-58
2021/04/24 03:06:58;;;;;;;9.50;2.25;;;3.30;99.90;;;;;;4921712;29;20032;-58
2021/04/24 03:09:24;;;;;;;6.18;1.80;;;3.30;99.90;;;;;;4921293;29;20023;-58
2021/04/24 03:11:50;;;;;;;6.65;2.13;;;3.40;99.90;;;;;;4921901;29;20050;-58
2021/04/24 03:14:16;;;;;;;12.82;1.83;;;3.40;99.90;;;;;;4921665;29;20492;-58
2021/04/24 03:16:42;;;;;;;8.32;1.55;;;3.40;99.90;;;;;;4922195;29;20040;-58
2021/04/24 03:19:09;;;;;;;6.28;2.05;;;3.40;99.90;;;;;;4920963;29;20114;-58
2021/04/24 03:21:35;;;;;;;10.00;1.70;;;3.30;99.90;;;;;;4921741;29;20028;-58
2021/04/24 03:24:02;;;;;;;7.95;1.80;;;3.30;99.90;;;;;;4921835;29;20846;-58
2021/04/24 03:26:28;;;;;;;5.97;1.38;;;3.30;99.90;;;;;;4905080;29;20138;-58
2021/04/24 03:28:54;;;;;;;3.55;1.48;;;3.30;99.90;;;;;;4920467;29;20035;-58
2021/04/24 03:31:19;;;;;;;11.32;1.90;;;3.20;99.90;;;;;;4922199;29;20123;-59
2021/04/24 03:33:45;;;;;;;9.43;1.95;;;3.20;99.90;;;;;;4921863;29;20059;-58
2021/04/24 03:36:12;;;;;;;15.50;2.22;;;3.20;99.90;;;;;;4921805;29;20138;-58
2021/04/24 03:38:38;;;;;;;7.70;1.58;;;3.10;99.90;;;;;;4921706;29;20609;-59
2021/04/24 03:41:05;;;;;;;7.45;1.67;;;3.10;99.90;;;;;;4920953;29;20103;-59
2021/04/24 03:43:31;;;;;;;8.18;1.67;;;3.10;99.90;;;;;;4921179;29;20146;-59
2021/04/24 03:45:57;;;;;;;8.65;1.67;;;3.10;99.90;;;;;;4920887;29;20122;-58
2021/04/24 03:48:23;;;;;;;6.22;2.97;;;3.10;99.90;;;;;;4888624;29;20558;-58
2021/04/24 03:50:48;;;;;;;5.93;1.35;;;3.10;99.90;;;;;;4921312;29;20066;-58
2021/04/24 03:53:14;;;;;;;8.48;1.77;;;3.10;99.90;;;;;;4922576;29;20071;-58
2021/04/24 03:55:40;;;;;;;6.22;1.50;;;3.00;99.90;;;;;;4920078;29;20036;-58
2021/04/24 03:58:06;;;;;;;4.38;1.50;;;3.00;99.90;;;;;;4921636;29;20032;-59
2021/04/24 04:00:32;;;;;;;6.32;1.50;;;3.10;99.90;;;;;;4920889;29;20031;-59
2021/04/24 04:03:01;;;;;;;3.47;1.40;;;3.10;99.90;;;;;;4921153;29;20043;-58
2021/04/24 04:05:31;;;;;;;6.60;1.50;;;3.00;99.90;;;;;;4919396;29;20043;-58
2021/04/24 04:07:57;;;;;;;5.23;1.50;;;3.00;99.90;;;;;;4921275;29;20036;-58
2021/04/24 04:10:25;;;;;;;6.85;1.52;;;3.00;99.90;;;;;;4920866;29;20024;-58
2021/04/24 04:12:51;;;;;;;10.52;1.50;;;3.00;99.90;;;;;;4920449;29;20506;-59
2021/04/24 04:15:19;;;;;;;3.55;1.20;;;3.00;99.90;;;;;;4920236;29;20031;-59
2021/04/24 04:17:57;;;;;;;6.22;1.50;;;3.00;99.90;;;;;;4921445;29;20548;-58
2021/04/24 04:20:23;;;;;;;4.07;1.00;;;2.90;99.90;;;;;;4916798;29;20082;-59
2021/04/24 04:22:49;;;;;;;4.63;1.25;;;2.90;99.90;;;;;;4915549;29;20107;-59
2021/04/24 04:25:15;;;;;;;5.28;2.10;;;3.00;99.90;;;;;;4920040;29;20058;-58
2021/04/24 04:27:41;;;;;;;8.82;2.22;;;3.00;99.90;;;;;;4920916;29;20034;-59
2021/04/24 04:30:09;;;;;;;11.05;2.00;;;3.00;99.90;;;;;;4919580;29;20031;-59
2021/04/24 04:32:36;;;;;;;6.95;1.27;;;3.10;99.90;;;;;;4918958;29;20209;-59
2021/04/24 04:35:03;;;;;;;6.85;1.42;;;3.10;99.90;;;;;;4920267;29;20610;-59
2021/04/24 04:37:29;;;;;;;8.40;1.50;;;3.10;99.90;;;;;;4920530;29;20057;-58
2021/04/24 04:39:55;;;;;;;12.85;1.33;;;3.20;99.90;;;;;;4924206;29;20770;-59
2021/04/24 04:42:21;;;;;;;2.80;1.00;;;3.20;99.90;;;;;;4922036;29;20039;-58
2021/04/24 04:44:47;;;;;;;3.42;1.10;;;3.30;99.90;;;;;;4922969;29;20027;-58
2021/04/24 04:47:13;;;;;;;3.67;1.33;;;3.40;99.90;;;;;;4919682;29;20036;-59
2021/04/24 04:49:39;;;;;;;11.70;1.55;;;3.50;99.90;;;;;;4921787;29;20122;-59
2021/04/24 04:52:05;;;;;;;11.18;1.30;;;3.60;99.90;;;;;;4923148;29;20039;-59
2021/04/24 04:54:31;;;;;;;5.95;1.63;;;3.60;99.90;;;;;;4923893;29;20757;-59
2021/04/24 04:56:56;;;;;;;11.20;3.15;;;3.80;99.90;;;;;;4923196;29;20046;-59
2021/04/24 04:59:22;;;;;;;8.02;1.48;;;3.80;99.90;;;;;;4924186;29;20043;-59
2021/04/24 05:01:48;;;;;;;7.90;1.50;;;3.90;99.90;;;;;;4922873;29;20066;-59
2021/04/24 05:04:14;;;;;;;7.05;1.83;;;4.00;99.90;;;;;;4921194;29;20586;-59
2021/04/24 05:06:39;;;;;;;6.38;1.58;;;4.10;99.90;;;;;;4923574;29;20046;-59
2021/04/24 05:09:05;;;;;;;5.13;1.10;;;4.20;99.90;;;;;;4923984;29;20063;-59
2021/04/24 05:11:31;;;;;;;6.78;1.48;;;4.30;99.90;;;;;;4923280;29;20051;-59
2021/04/24 05:13:57;;;;;;;6.88;1.67;;;4.40;99.90;;;;;;4923164;29;20110;-59
2021/04/24 05:16:23;;;;;;;4.68;1.48;;;4.50;99.90;;;;;;4922487;29;20027;-59
2021/04/24 05:18:49;;;;;;;6.40;0.88;;;4.70;99.90;;;;;;4922087;29;20134;-59
2021/04/24 05:21:14;;;;;;;3.85;1.25;;;4.80;99.90;;;;;;4922955;29;20059;-59
2021/04/24 05:23:40;;;;;;;4.72;1.15;;;5.00;99.90;;;;;;4924527;29;20127;-59
2021/04/24 05:26:06;;;;;;;4.65;1.20;;;5.10;99.90;;;;;;4923132;29;20699;-59
2021/04/24 05:28:32;;;;;;;6.72;1.42;;;5.30;99.90;;;;;;4923495;29;20057;-59
2021/04/24 05:30:58;;;;;;;3.92;1.02;;;5.40;99.90;;;;;;4923177;29;20039;-59
2021/04/24 05:33:24;;;;;;;6.72;1.42;;;5.60;99.90;;;;;;4920303;29;20118;-59
2021/04/24 05:35:50;;;;;;;6.65;1.10;;;5.80;99.90;;;;;;4924594;29;20387;-59
2021/04/24 05:38:15;;;;;;;3.33;1.15;;;6.00;99.90;;;;;;4922290;29;20035;-59
2021/04/24 05:40:41;;;;;;;10.38;1.55;;;6.20;99.90;;;;;;4919605;29;20788;-59
2021/04/24 05:43:07;;;;;;;9.35;1.25;;;6.30;99.90;;;;;;4920063;29;20027;-59
2021/04/24 05:45:33;;;;;;;5.90;1.25;;;6.60;99.90;;;;;;4920335;29;20063;-59
2021/04/24 05:47:59;;;;;;;3.38;0.80;;;6.80;99.90;;;;;;4921004;29;20519;-59
2021/04/24 05:50:25;;;;;;;11.50;1.23;;;7.00;99.90;;;;;;4903651;29;20055;-59
2021/04/24 05:52:51;;;;;;;14.85;1.88;;;7.10;99.90;;;;;;4903410;29;20046;-59
2021/04/24 05:55:17;;;;;;;5.40;1.15;;;7.30;99.90;;;;;;4922393;29;20028;-59
2021/04/24 05:57:43;;;;;;;6.45;1.23;;;7.60;99.90;;;;;;4905143;29;20483;-60
2021/04/24 06:00:15;;;;;;;5.82;1.23;;;7.80;99.90;;;;;;4919705;29;20511;-59
2021/04/24 06:02:41;;;;;;;6.60;1.17;;;8.00;99.90;;;;;;4904373;29;20119;-59
2021/04/24 06:05:09;;;;;;;5.75;1.77;;;8.20;99.90;;;;;;4923253;29;20027;-59
2021/04/24 06:07:36;;;;;;;8.52;1.67;;;8.40;99.90;;;;;;4921445;29;20047;-59
2021/04/24 06:10:07;;;;;;;4.20;1.20;;;8.60;99.90;;;;;;4921504;29;20036;-59
2021/04/24 06:12:33;;;;;;;5.35;1.02;;;8.80;99.90;;;;;;4921399;29;20050;-59
2021/04/24 06:14:59;;;;;;;4.70;1.52;;;8.90;99.90;;;;;;4920336;29;20035;-59
2021/04/24 06:17:25;;;;;;;5.88;1.45;;;9.10;99.90;;;;;;4920998;29;20060;-59
2021/04/24 06:19:51;;;;;;;7.88;1.35;;;9.30;99.90;;;;;;4919781;29;20035;-59
2021/04/24 06:22:18;;;;;;;5.47;1.45;;;9.50;99.90;;;;;;4919197;29;20042;-59
2021/04/24 06:24:44;;;;;;;7.88;1.00;;;9.50;99.90;;;;;;4920510;29;20577;-58
2021/04/24 06:27:10;;;;;;;5.47;1.15;;;9.70;99.90;;;;;;4919882;29;20111;-58
2021/04/24 06:29:36;;;;;;;5.07;1.42;;;9.70;99.90;;;;;;4917988;29;20028;-67
2021/04/24 06:32:02;;;;;;;5.22;1.20;;;9.50;99.90;;;;;;4918460;29;20121;-63
2021/04/24 06:34:28;;;;;;;3.88;1.25;;;9.50;99.90;;;;;;4913037;29;20440;-63
2021/04/24 06:36:54;;;;;;;4.20;0.90;;;9.60;99.90;;;;;;4919856;29;20040;-62
2021/04/24 06:39:20;;;;;;;5.10;1.58;;;9.90;99.90;;;;;;4921456;29;20028;-63
2021/04/24 06:41:46;;;;;;;8.00;1.27;;;10.10;99.90;;;;;;4920559;29;20043;-63
2021/04/24 06:44:11;;;;;;;2.50;0.95;;;10.40;99.90;;;;;;4922121;29;20036;-63
2021/04/24 06:46:37;;;;;;;8.98;0.90;;;10.70;99.90;;;;;;4919342;29;20574;-63
2021/04/24 06:49:03;;;;;;;6.47;1.23;;;10.90;99.90;;;;;;4900186;29;618941;-63
2021/04/24 06:51:29;;;;;;;3.22;0.98;;;11.20;99.90;;;;;;4921466;29;20043;-63
2021/04/24 06:53:55;;;;;;;1.73;0.90;;;11.20;99.90;;;;;;4921375;29;20800;-63
2021/04/24 06:56:21;;;;;;;2.45;0.60;;;11.50;99.30;;;;;;4923363;29;20086;-63
2021/04/24 06:58:47;;;;;;;4.38;0.80;;;11.60;99.00;;;;;;4922709;29;20042;-63
2021/04/24 07:01:13;;;;;;;4.50;0.75;;;11.70;98.30;;;;;;4919240;29;20031;-64
2021/04/24 07:03:39;;;;;;;6.57;1.08;;;11.70;97.30;;;;;;4920953;29;20436;-64
2021/04/24 07:06:05;;;;;;;4.53;1.15;;;12.00;96.70;;;;;;4922000;29;20027;-63
2021/04/24 07:08:31;;;;;;;4.72;0.98;;;12.00;96.40;;;;;;4921370;29;20488;-62
2021/04/24 07:10:58;;;;;;;3.95;0.90;;;12.20;95.40;;;;;;4915508;29;20093;-62
2021/04/24 07:13:24;;;;;;;2.67;0.80;;;12.30;94.90;;;;;;4901883;29;20075;-62
2021/04/24 07:15:49;;;;;;;2.45;1.08;;;12.50;94.40;;;;;;4902780;29;20059;-62
2021/04/24 07:18:15;;;;;;;7.45;0.70;;;12.40;94.20;;;;;;4918443;29;20758;-63
2021/04/24 07:20:41;;;;;;;1.35;0.82;;;12.60;94.20;;;;;;4919211;29;20031;-63
2021/04/24 07:23:08;;;;;;;2.83;0.88;;;12.90;93.50;;;;;;4918769;29;20059;-63
2021/04/24 07:25:34;;;;;;;6.10;1.17;;;13.20;93.50;;;;;;4915641;29;20031;-63
2021/04/24 07:28:00;;;;;;;3.10;1.27;;;13.50;93.70;;;;;;4916605;29;20036;-69
2021/04/24 07:30:26;;;;;;;2.42;0.85;;;13.70;88.90;;;;;;4919177;29;20570;-63
2021/04/24 07:32:52;;;;;;;2.75;0.90;;;13.30;89.40;;;;;;4920948;29;20050;-63
2021/04/24 07:35:18;;;;;;;4.57;0.90;;;13.20;89.10;;;;;;4919186;29;20757;-64
2021/04/24 07:37:44;;;;;;;3.08;0.75;;;13.20;90.50;;;;;;4921426;29;20039;-64
2021/04/24 07:40:11;;;;;;;2.42;0.65;;;13.40;87.00;;;;;;4921515;29;20035;-63
2021/04/24 07:42:37;;;;;;;2.30;0.77;;;13.50;83.80;;;;;;4921438;29;20028;-63
2021/04/24 07:45:05;;;;;;;2.60;0.70;;;13.80;84.60;;;;;;4920700;29;20023;-64
2021/04/24 07:47:30;;;;;;;1.23;0.50;;;14.00;83.30;;;;;;4920670;29;20028;-64
2021/04/24 07:49:56;;;;;;;1.33;0.50;;;14.10;81.00;;;;;;4921431;29;20043;-64
2021/04/24 07:52:22;;;;;;;2.00;0.65;;;14.30;78.70;;;;;;4920750;29;20051;-64
2021/04/24 07:54:48;;;;;;;5.28;0.77;;;14.40;78.80;;;;;;4921117;29;20036;-61
2021/04/24 07:57:15;;;;;;;2.38;0.70;;;14.30;76.90;;;;;;4921129;29;20058;-61
2021/04/24 07:59:42;;;;;;;2.28;0.63;;;14.40;77.90;;;;;;4920945;29;20032;-65
2021/04/24 08:02:09;;;;;;;3.10;0.80;;;14.30;77.20;;;;;;4920123;29;20032;-61
2021/04/24 08:04:35;;;;;;;4.60;0.85;;;14.60;77.10;;;;;;4920716;29;20042;-61
2021/04/24 08:07:02;;;;;;;5.30;0.88;;;14.30;75.20;;;;;;4921201;29;20028;-61
2021/04/24 08:09:28;;;;;;;4.97;0.80;;;14.60;74.90;;;;;;4921164;29;20035;-62
2021/04/24 08:11:54;;;;;;;1.92;0.80;;;15.00;72.30;;;;;;4919315;29;20032;-62
2021/04/24 08:14:20;;;;;;;1.30;0.60;;;15.30;72.60;;;;;;4924173;29;20047;-62
2021/04/24 08:16:46;;;;;;;3.33;0.80;;;15.40;72.60;;;;;;4924823;29;20027;-62
2021/04/24 08:19:12;;;;;;;3.55;1.48;;;15.90;72.10;;;;;;4924998;29;20669;-62
2021/04/24 08:21:39;;;;;;;4.85;0.82;;;15.90;70.80;;;;;;4924346;29;20036;-62
2021/04/24 08:24:06;;;;;;;1.48;0.85;;;16.00;69.80;;;;;;4924232;29;20047;-62
2021/04/24 08:26:32;;;;;;;0.85;0.50;;;16.10;67.80;;;;;;4922963;29;20709;-62
2021/04/24 08:28:58;;;;;;;4.63;1.35;;;15.70;64.30;;;;;;4923264;29;20040;-62
2021/04/24 08:31:24;;;;;;;2.78;1.23;;;15.70;68.30;;;;;;4923534;29;20617;-62
2021/04/24 08:33:51;;;;;;;1.15;0.63;;;15.60;66.20;;;;;;4923282;29;20044;-62
2021/04/24 08:36:17;;;;;;;1.15;0.60;;;15.80;65.50;;;;;;4925466;29;20066;-63
2021/04/24 08:38:43;;;;;;;5.43;0.77;;;16.00;65.10;;;;;;4907831;29;20069;-62
2021/04/24 08:41:09;;;;;;;1.48;0.70;;;16.00;66.80;;;;;;4924940;29;20032;-62
2021/04/24 08:43:39;;;;;;;1.77;0.57;;;16.00;67.10;;;;;;4925736;29;20526;-63
2021/04/24 08:46:05;;;;;;;1.42;0.60;;;16.30;66.80;;;;;;4923734;29;20109;-62
2021/04/24 08:48:33;;;;;;;3.15;0.95;;;16.50;64.40;;;;;;4925238;29;20031;-63
2021/04/24 08:51:00;;;;;;;2.53;0.60;;;16.80;68.30;;;;;;4920804;29;20050;-63
2021/04/24 08:53:26;;;;;;;1.48;0.70;;;16.70;63.80;;;;;;4923077;29;20043;-62
2021/04/24 08:55:52;;;;;;;4.63;0.88;;;16.70;65.60;;;;;;4906443;29;20114;-63
2021/04/24 08:58:20;;;;;;;1.23;0.50;;;16.80;65.30;;;;;;4923613;29;20051;-62
2021/04/24 09:00:48;;;;;;;3.15;0.70;;;17.10;64.70;;;;;;4924961;29;20035;-63
2021/04/24 09:03:19;;;;;;;3.70;1.13;;;17.10;64.30;;;;;;4924826;29;20039;-63
2021/04/24 09:05:46;;;;;;;1.20;0.60;;;17.20;64.50;;;;;;4924206;29;20171;-63
2021/04/24 09:08:12;;;;;;;0.80;0.55;;;17.20;62.30;;;;;;4924512;29;20036;-63
2021/04/24 09:10:44;;;;;;;3.05;0.80;;;17.40;66.10;;;;;;4924868;29;20058;-63
2021/04/24 09:13:16;;;;;;;1.52;0.73;;;17.40;62.30;;;;;;4924670;29;20073;-63
2021/04/24 09:15:42;;;;;;;0.75;0.75;;;17.70;64.10;;;;;;4924609;29;20038;-63
2021/04/24 09:18:09;;;;;;;1.10;0.40;;;17.30;57.80;;;;;;4924924;29;20039;-64
2021/04/24 09:20:55;;;;;;;3.45;0.50;;;16.70;62.80;;;;;;4922945;29;20638;-64
2021/04/24 09:23:31;;;;;;;1.95;0.70;;;16.50;62.20;;;;;;4924706;29;20064;-65
2021/04/24 09:26:02;;;;;;;3.55;0.82;;;16.50;63.30;;;;;;4924657;29;20024;-62
2021/04/24 09:28:32;;;;;;;1.90;0.68;;;16.80;70.50;;;;;;4924601;29;20082;-62
2021/04/24 09:31:15;;;;;;;6.75;1.30;;;17.40;62.80;;;;;;4924981;29;20372;-62
2021/04/24 09:33:43;;;;;;;4.18;1.17;;;17.80;62.30;;;;;;4923905;29;21039;-65
2021/04/24 09:36:10;;;;;;;3.50;1.30;;;17.40;65.70;;;;;;4922423;29;20050;-64
2021/04/24 09:38:39;;;;;;;2.70;0.60;;;16.80;64.70;;;;;;4924666;29;20083;-65
2021/04/24 09:41:06;;;;;;;5.57;1.60;;;16.20;68.10;;;;;;4924270;29;20034;-64
2021/04/24 09:43:57;;;;;;;3.35;0.95;;;16.30;68.30;;;;;;4924544;29;20023;-64
2021/04/24 09:46:30;;;;;;;8.23;1.25;;;16.60;65.90;;;;;;4924090;29;20028;-64
2021/04/24 09:49:08;;;;;;;5.15;1.10;;;16.70;66.10;;;;;;4924110;29;20570;-64
2021/04/24 09:52:04;;;;;;;7.97;1.20;;;16.80;67.10;;;;;;4922310;29;20052;-64
2021/04/24 09:54:33;;;;;;;5.10;1.40;;;15.90;66.10;;;;;;4917005;29;20039;-64
2021/04/24 09:57:20;;;;;;;3.30;1.13;;;15.30;69.40;;;;;;4919294;29;20118;-64
2021/04/24 09:59:57;;;;;;;4.50;1.33;;;15.10;67.40;;;;;;4921613;29;20167;-64
2021/04/24 10:02:38;;;;;;;5.30;1.38;;;15.00;71.20;;;;;;4920684;29;20046;-64
2021/04/24 10:05:17;;;;;;;7.78;1.38;;;15.40;73.10;;;;;;4920405;29;20035;-64
2021/04/24 10:07:44;;;;;;;;;;;15.30;73.50;;;;;;4896723;29;20035;-64
2021/04/24 10:10:15;;;;;;;8.50;1.55;;;15.40;71.60;;;;;;4918819;29;20298;-64
2021/04/24 10:13:00;;;;;;;7.18;1.50;;;15.60;73.10;;;;;;4921958;29;20446;-64
2021/04/24 10:15:55;;;;;;;6.47;1.52;;;15.60;74.10;;;;;;4921942;29;20440;-64
2021/04/24 10:18:21;;;;;;;4.88;1.70;;;15.90;73.00;;;;;;4897681;29;20150;-64
2021/04/24 10:20:47;;;;;;;4.32;1.45;;;15.80;72.50;;;;;;4904142;29;20582;-64
2021/04/24 10:23:15;;;;;;;3.08;1.00;;;16.20;71.00;;;;;;4921838;29;20079;-64
2021/04/24 10:25:41;;;;;;;3.38;1.00;;;16.10;69.90;;;;;;4923596;29;20396;-64
2021/04/24 10:28:08;;;;;;;3.05;0.70;;;15.70;69.30;;;;;;4903946;29;20127;-64
2021/04/24 10:30:34;;;;;;;3.58;0.90;;;15.00;67.80;;;;;;4922261;29;20106;-63
2021/04/24 10:33:02;;;;;;;3.08;0.90;;;14.50;71.00;;;;;;4922106;29;20526;-63
2021/04/24 10:35:30;;;;;;;6.30;1.17;;;14.10;70.70;;;;;;4920891;29;20028;-63
2021/04/24 10:37:57;;;;;;;9.80;1.38;;;14.40;74.30;;;;;;4921647;29;20498;-64
2021/04/24 10:40:23;;;;;;;5.35;1.10;;;14.90;69.90;;;;;;4920420;29;20035;-63
2021/04/24 10:42:55;;;;;;;5.38;1.10;;;15.10;70.10;;;;;;4922678;29;20066;-63
2021/04/24 10:45:34;;;;;;;10.18;1.20;;;14.90;71.30;;;;;;4920500;29;20167;-64
2021/04/24 10:48:01;;;;;;;7.65;1.33;;;15.00;69.50;;;;;;4918579;29;20808;-64
2021/04/24 10:50:39;;;;;;;4.13;1.05;;;15.10;72.30;;;;;;4920369;29;20081;-63
2021/04/24 10:53:26;;;;;;;3.63;0.95;;;15.30;70.60;;;;;;4919882;29;20058;-64
2021/04/24 10:55:58;;;;;;;6.10;0.93;;;15.50;68.00;;;;;;4916356;29;20038;-64
2021/04/24 10:58:27;;;;;;;3.70;0.95;;;15.40;69.90;;;;;;4922068;29;20039;-64
2021/04/24 11:00:55;;;;;;;3.08;1.05;;;15.00;71.00;;;;;;4920766;29;20139;-63
2021/04/24 11:03:40;;;;;;;4.90;1.10;;;15.00;72.50;;;;;;4917622;29;20101;-63
2021/04/24 11:06:12;;;;;;;4.07;0.77;;;15.30;69.60;;;;;;4904397;29;20040;-64
2021/04/24 11:08:43;;;;;;;4.13;0.73;;;15.50;71.30;;;;;;4921275;29;20059;-64
2021/04/24 11:11:12;;;;;;;4.45;0.80;;;15.50;71.10;;;;;;4919401;29;20038;-65
2021/04/24 11:13:42;;;;;;;6.00;1.08;;;15.40;68.40;;;;;;4920131;29;20047;-63
2021/04/24 11:16:11;;;;;;;6.15;1.17;;;15.20;69.90;;;;;;4919891;29;20039;-64
2021/04/24 11:18:39;;;;;;;5.75;1.23;;;15.00;71.50;;;;;;4918573;29;20516;-64
2021/04/24 11:21:11;;;;;;;5.93;1.25;;;15.20;72.60;;;;;;4920357;29;20064;-63
2021/04/24 11:23:48;;;;;;;3.92;1.30;;;15.30;70.10;;;;;;4919374;29;20031;-63
2021/04/24 11:26:20;;;;;;;2.40;0.82;;;15.20;71.90;;;;;;4920368;29;20538;-64
2021/04/24 11:29:01;;;;;;;10.68;1.50;;;15.40;71.00;;;;;;4901388;29;20035;-64
2021/04/24 11:31:42;;;;;;;1.95;1.00;;;15.50;69.70;;;;;;4919173;29;20039;-63
2021/04/24 11:34:40;;;;;;;5.05;1.70;;;14.60;72.40;;;;;;4921411;29;20043;-63
2021/04/24 11:37:18;;;;;;;5.57;1.20;;;14.10;73.50;;;;;;4918150;29;20419;-63
2021/04/24 11:40:24;;;;;;;6.68;1.50;;;14.00;76.60;;;;;;4916653;29;20107;-64
2021/04/24 11:43:06;;;;;;;4.57;1.48;;;14.10;74.20;;;;;;4920235;29;20066;-63
2021/04/24 11:46:01;;;;;;;7.60;1.88;;;14.20;77.30;;;;;;4902141;29;20034;-63
2021/04/24 11:48:48;;;;;;;4.20;1.70;;;14.30;78.90;;;;;;4921836;29;20060;-64
2021/04/24 11:51:36;;;;;;;4.18;1.52;;;14.70;75.30;;;;;;4921106;29;20062;-63
2021/04/24 11:54:03;;;;;;;6.15;1.85;;;14.60;79.20;;;;;;4916787;29;20039;-64
2021/04/24 11:56:29;;;;;;;5.50;2.10;;;14.50;78.90;;;;;;4916248;29;20038;-70
2021/04/24 11:58:55;;;;;;;7.72;1.65;;;14.60;79.40;;;;;;4919884;29;20828;-63
2021/04/24 12:01:25;;;;;;;8.93;1.90;;;14.50;80.90;;;;;;4920620;29;20027;-63
2021/04/24 12:03:51;;;;;;;;;;;14.10;82.60;;;;;;4921983;29;20095;-63
2021/04/24 12:06:38;;;;;;;14.35;1.83;;;14.10;83.30;;;;;;4921237;29;19918;-63
2021/04/24 12:09:10;;;;;;;4.88;1.70;;;14.40;84.80;;;;;;4918025;29;20151;-63
2021/04/24 12:11:36;;;;;;;9.35;2.13;;;14.80;80.90;;;;;;4921709;29;20051;-63
2021/04/24 12:14:03;;;;;;;5.50;1.70;;;14.90;83.20;;;;;;4920422;29;20071;-63
2021/04/24 12:16:58;;;;;;;10.45;2.90;;;15.20;81.10;;;;;;4919961;29;20032;-63
2021/04/24 12:19:25;;;;;;;8.00;2.00;;;15.00;83.40;;;;;;4908237;29;20073;-63
2021/04/24 12:22:13;;;;;;;4.97;1.55;;;14.90;84.00;;;;;;4904458;29;20031;-63
2021/04/24 12:24:53;;;;;;;7.18;1.75;;;14.70;81.90;;;;;;4921319;29;20677;-63
2021/04/24 12:27:26;;;;;;;4.35;1.63;;;14.60;80.90;;;;;;4920141;29;20684;-63
2021/04/24 12:29:52;;;;;;;4.75;1.75;;;14.80;81.10;;;;;;4921736;29;20115;-63
2021/04/24 12:32:22;;;;;;;5.05;1.48;;;14.70;83.00;;;;;;4902366;29;20127;-63
2021/04/24 12:34:48;;;;;;;4.82;1.60;;;15.00;82.80;;;;;;4920867;29;20119;-63
2021/04/24 12:37:19;;;;;;;8.93;2.30;;;15.20;82.30;;;;;;4920439;29;20407;-64
2021/04/24 12:39:45;;;;;;;10.20;2.13;;;15.00;81.60;;;;;;4919819;29;20042;-63
2021/04/24 12:42:12;;;;;;;4.75;1.77;;;15.10;78.30;;;;;;4921793;29;20039;-63
2021/04/24 12:44:39;;;;;;;5.53;1.83;;;15.10;80.30;;;;;;4921368;29;20108;-63
2021/04/24 12:47:06;;;;;;;7.22;1.70;;;15.10;80.70;;;;;;4921376;29;20032;-63
2021/04/24 12:49:33;;;;;;;7.90;1.90;;;15.20;78.90;;;;;;4921198;29;20066;-63
2021/04/24 12:52:09;;;;;;;5.28;1.60;;;15.20;79.80;;;;;;4921598;29;20086;-63
2021/04/24 12:54:35;;;;;;;5.38;1.67;;;14.80;79.90;;;;;;4921542;29;20605;-63
2021/04/24 12:57:18;;;;;;;5.60;1.95;;;14.60;81.90;;;;;;4920453;29;20035;-63